createdAt,value
2017-07-03T00:01:49.907Z,1.60
2017-07-03T00:04:17.348Z,1.60
2017-07-03T00:06:44.790Z,1.47
2017-07-03T00:09:12.231Z,1.40
2017-07-03T00:11:40.447Z,1.67
2017-07-03T00:14:07.892Z,1.90
2017-07-03T00:16:35.326Z,1.87
2017-07-03T00:19:03.540Z,1.70
2017-07-03T00:21:30.983Z,1.53
2017-07-03T00:23:58.425Z,2.00
2017-07-03T00:26:25.870Z,1.63
2017-07-03T00:28:53.323Z,1.63
2017-07-03T00:31:21.536Z,2.20
2017-07-03T00:33:48.987Z,1.80
2017-07-03T00:36:16.443Z,1.60
2017-07-03T00:38:43.902Z,1.60
2017-07-03T00:41:11.342Z,1.70
2017-07-03T00:43:38.816Z,1.47
2017-07-03T00:46:06.306Z,1.50
2017-07-03T00:48:33.751Z,1.70
2017-07-03T00:51:01.194Z,2.07
2017-07-03T00:53:28.634Z,1.50
2017-07-03T00:55:56.091Z,1.93
2017-07-03T00:58:23.536Z,1.90
2017-07-03T01:00:50.987Z,1.70
2017-07-03T01:03:18.661Z,1.97
2017-07-03T01:05:46.103Z,1.80
2017-07-03T01:08:13.542Z,1.67
2017-07-03T01:10:41.778Z,1.70
2017-07-03T01:13:09.218Z,1.50
2017-07-03T01:15:36.699Z,2.00
2017-07-03T01:18:04.160Z,2.17
2017-07-03T01:20:31.599Z,2.00
2017-07-03T01:22:59.059Z,2.10
2017-07-03T01:25:26.516Z,2.17
2017-07-03T01:27:53.959Z,2.10
2017-07-03T01:30:21.400Z,1.97
2017-07-03T01:32:48.878Z,2.33
2017-07-03T01:35:16.322Z,2.20
2017-07-03T01:37:43.779Z,2.93
2017-07-03T01:40:11.214Z,2.50
2017-07-03T01:42:38.683Z,2.30
2017-07-03T01:45:06.127Z,2.60
2017-07-03T01:47:33.572Z,2.30
2017-07-03T01:50:01.015Z,2.20
2017-07-03T01:52:29.228Z,2.30
2017-07-03T01:54:56.674Z,2.10
2017-07-03T01:57:24.110Z,1.90
2017-07-03T01:59:51.555Z,1.83
2017-07-03T02:02:19.767Z,1.53
2017-07-03T02:04:47.217Z,1.67
2017-07-03T02:07:14.651Z,1.90
2017-07-03T02:09:42.095Z,2.07
2017-07-03T02:12:10.306Z,1.83
2017-07-03T02:14:37.783Z,1.73
2017-07-03T02:17:05.223Z,1.80
2017-07-03T02:19:32.663Z,2.00
2017-07-03T02:22:00.104Z,1.80
2017-07-03T02:24:28.359Z,1.60
2017-07-03T02:26:55.798Z,1.57
2017-07-03T02:29:23.234Z,1.90
2017-07-03T02:31:50.675Z,1.80
2017-07-03T02:34:18.129Z,1.63
2017-07-03T02:36:45.571Z,2.07
2017-07-03T02:39:13.012Z,1.90
2017-07-03T02:41:41.219Z,2.00
2017-07-03T02:44:08.660Z,2.00
2017-07-03T02:46:36.127Z,2.00
2017-07-03T02:49:03.554Z,2.37
2017-07-03T02:51:30.990Z,1.90
2017-07-03T02:53:59.219Z,2.00
2017-07-03T02:56:26.658Z,2.00
2017-07-03T02:58:54.512Z,2.10
2017-07-03T03:01:21.945Z,2.20
2017-07-03T03:03:50.170Z,2.20
2017-07-03T03:06:17.611Z,2.37
2017-07-03T03:08:45.061Z,2.70
2017-07-03T03:11:12.499Z,2.80
2017-07-03T03:13:40.710Z,2.27
2017-07-03T03:16:08.151Z,2.63
2017-07-03T03:18:35.611Z,2.33
2017-07-03T03:21:03.041Z,2.63
2017-07-03T03:23:30.507Z,2.97
2017-07-03T03:25:57.950Z,2.50
2017-07-03T03:28:26.164Z,2.20
2017-07-03T03:30:53.620Z,2.50
2017-07-03T03:33:21.063Z,2.63
2017-07-03T03:35:48.511Z,2.40
2017-07-03T03:38:15.951Z,2.40
2017-07-03T03:40:44.162Z,2.10
2017-07-03T03:43:11.603Z,2.47
2017-07-03T03:45:39.047Z,2.57
2017-07-03T03:48:06.483Z,2.57
2017-07-03T03:50:34.703Z,2.53
2017-07-03T03:53:02.159Z,2.07
2017-07-03T03:55:29.592Z,2.30
2017-07-03T03:57:57.044Z,2.07
2017-07-03T04:00:24.478Z,2.20
2017-07-03T04:02:52.698Z,2.40
2017-07-03T04:05:20.139Z,2.23
2017-07-03T04:07:47.584Z,2.20
2017-07-03T04:10:15.022Z,2.07
2017-07-03T04:12:43.243Z,2.23
2017-07-03T04:15:10.682Z,2.40
2017-07-03T04:17:38.142Z,2.40
2017-07-03T04:20:05.592Z,2.30
2017-07-03T04:22:33.027Z,2.63
2017-07-03T04:25:01.239Z,2.90
2017-07-03T04:27:28.678Z,3.00
2017-07-03T04:29:56.127Z,2.53
2017-07-03T04:32:23.559Z,3.27
2017-07-03T04:34:51.785Z,2.70
2017-07-03T04:37:19.227Z,2.80
2017-07-03T04:39:46.671Z,3.20
2017-07-03T04:42:14.115Z,3.17
2017-07-03T04:44:42.321Z,3.30
2017-07-03T04:47:09.807Z,3.00
2017-07-03T04:49:37.250Z,3.17
2017-07-03T04:52:04.701Z,3.13
2017-07-03T04:54:32.152Z,2.93
2017-07-03T04:56:59.591Z,3.30
2017-07-03T04:59:27.034Z,2.70
2017-07-03T05:01:54.471Z,3.07
2017-07-03T05:04:22.692Z,3.03
2017-07-03T05:06:50.127Z,2.80
2017-07-03T05:09:17.571Z,3.10
2017-07-03T05:11:45.774Z,2.90
2017-07-03T05:14:13.235Z,3.20
2017-07-03T05:16:40.675Z,3.30
2017-07-03T05:19:08.132Z,3.37
2017-07-03T05:21:35.573Z,2.83
2017-07-03T05:24:03.006Z,3.50
2017-07-03T05:26:30.455Z,3.23
2017-07-03T05:28:57.907Z,3.10
2017-07-03T05:31:25.379Z,3.50
2017-07-03T05:33:53.622Z,3.80
2017-07-03T05:36:21.070Z,4.13
2017-07-03T05:38:48.516Z,3.53
2017-07-03T05:41:15.972Z,4.30
2017-07-03T05:44:01.098Z,3.93
2017-07-03T05:46:29.315Z,4.50
2017-07-03T05:48:56.755Z,5.00
2017-07-03T05:51:24.195Z,4.73
2017-07-03T05:53:51.683Z,4.53
2017-07-03T05:56:19.136Z,5.93
2017-07-03T05:58:46.588Z,5.77
2017-07-03T06:01:14.026Z,6.10
2017-07-03T06:03:41.475Z,5.30
2017-07-03T06:06:09.682Z,5.43
2017-07-03T06:08:37.134Z,5.73
2017-07-03T06:11:04.590Z,5.67
2017-07-03T06:13:32.035Z,5.73
2017-07-03T06:15:59.620Z,5.87
2017-07-03T06:18:27.063Z,5.40
2017-07-03T06:20:54.525Z,6.00
2017-07-03T06:23:21.964Z,5.60
2017-07-03T06:25:49.414Z,5.50
2017-07-03T06:28:16.854Z,5.43
2017-07-03T06:30:45.062Z,5.50
2017-07-03T06:33:12.517Z,4.63
2017-07-03T06:35:39.968Z,5.53
2017-07-03T06:38:07.402Z,4.70
2017-07-03T06:40:34.845Z,4.17
2017-07-03T06:43:02.296Z,4.03
2017-07-03T06:45:30.515Z,4.23
2017-07-03T06:47:57.977Z,4.30
2017-07-03T06:50:25.415Z,4.27
2017-07-03T06:52:52.860Z,4.63
2017-07-03T06:55:20.300Z,4.77
2017-07-03T06:57:47.752Z,5.20
2017-07-03T07:00:15.965Z,4.90
2017-07-03T07:02:43.429Z,4.47
2017-07-03T07:05:10.870Z,5.60
2017-07-03T07:07:38.328Z,5.43
2017-07-03T07:10:05.775Z,4.70
2017-07-03T07:12:33.211Z,4.20
2017-07-03T07:15:01.426Z,4.10
2017-07-03T07:17:28.884Z,4.30
2017-07-03T07:19:56.339Z,4.03
2017-07-03T07:22:23.780Z,4.20
2017-07-03T07:24:51.222Z,4.00
2017-07-03T07:27:19.431Z,3.93
2017-07-03T07:29:46.879Z,3.60
2017-07-03T07:32:14.334Z,3.73
2017-07-03T07:34:41.791Z,3.77
2017-07-03T07:37:09.249Z,3.50
2017-07-03T07:39:36.687Z,3.63
2017-07-03T07:42:04.131Z,4.53
2017-07-03T07:44:32.472Z,5.13
2017-07-03T07:46:59.930Z,4.20
2017-07-03T07:49:27.371Z,3.60
2017-07-03T07:51:54.827Z,4.33
2017-07-03T07:54:22.275Z,4.77
2017-07-03T07:56:49.714Z,4.30
2017-07-03T07:59:17.171Z,4.30
2017-07-03T08:01:44.617Z,4.73
2017-07-03T08:04:12.064Z,4.67
2017-07-03T08:06:39.499Z,3.80
2017-07-03T08:09:06.948Z,4.00
2017-07-03T08:11:34.391Z,4.70
2017-07-03T08:14:01.852Z,4.57
2017-07-03T08:16:29.295Z,4.50
2017-07-03T08:18:56.760Z,4.50
2017-07-03T08:21:24.200Z,4.03
2017-07-03T08:23:51.647Z,3.80
2017-07-03T08:26:19.091Z,4.20
2017-07-03T08:28:46.544Z,4.73
2017-07-03T08:31:14.003Z,4.57
2017-07-03T08:33:41.443Z,3.93
2017-07-03T08:36:08.896Z,3.50
2017-07-03T08:38:36.330Z,4.20
2017-07-03T08:41:03.783Z,4.43
2017-07-03T08:43:31.223Z,3.77
2017-07-03T08:45:58.683Z,4.03
2017-07-03T08:48:26.140Z,4.37
2017-07-03T08:50:53.582Z,3.77
2017-07-03T08:53:21.038Z,3.63
2017-07-03T08:55:48.486Z,4.10
2017-07-03T08:58:15.931Z,3.90
2017-07-03T09:00:43.388Z,4.20
2017-07-03T09:03:10.860Z,5.17
2017-07-03T09:05:38.312Z,4.67
2017-07-03T09:08:05.763Z,6.30
2017-07-03T09:10:33.215Z,5.10
2017-07-03T09:13:00.659Z,5.00
2017-07-03T09:15:28.110Z,4.27
2017-07-03T09:17:55.562Z,5.17
2017-07-03T09:20:23.007Z,5.20
2017-07-03T09:22:50.446Z,5.50
2017-07-03T09:25:17.915Z,5.47
2017-07-03T09:27:45.362Z,4.67
2017-07-03T09:30:13.568Z,5.30
2017-07-03T09:32:41.023Z,5.30
2017-07-03T09:35:08.478Z,5.13
2017-07-03T09:37:35.934Z,6.10
2017-07-03T09:40:03.379Z,4.67
2017-07-03T09:42:30.829Z,4.33
2017-07-03T09:44:58.267Z,3.97
2017-07-03T09:47:26.479Z,4.57
2017-07-03T09:49:53.936Z,4.80
2017-07-03T09:52:21.379Z,4.23
2017-07-03T09:54:48.822Z,4.90
2017-07-03T09:57:16.263Z,4.70
2017-07-03T09:59:44.475Z,4.90
2017-07-03T10:02:11.931Z,4.43
2017-07-03T10:04:39.402Z,4.27
2017-07-03T10:07:06.887Z,4.60
2017-07-03T10:09:34.299Z,4.00
2017-07-03T10:12:01.756Z,4.47
2017-07-03T10:14:29.214Z,4.40
2017-07-03T10:16:56.670Z,3.87
2017-07-03T10:19:24.118Z,3.43
2017-07-03T10:21:51.567Z,3.80
2017-07-03T10:24:19.003Z,3.57
2017-07-03T10:26:46.515Z,3.80
2017-07-03T10:29:13.963Z,3.53
2017-07-03T10:31:41.411Z,3.60
2017-07-03T10:34:08.861Z,3.17
2017-07-03T10:36:36.313Z,2.90
2017-07-03T10:39:03.774Z,2.90
2017-07-03T10:41:31.207Z,3.20
2017-07-03T10:43:58.654Z,2.87
2017-07-03T10:46:26.098Z,2.60
2017-07-03T10:48:53.535Z,2.43
2017-07-03T10:51:20.990Z,2.70
2017-07-03T10:53:48.451Z,2.70
2017-07-03T10:56:15.892Z,2.80
2017-07-03T10:58:43.369Z,2.87
2017-07-03T11:01:10.815Z,2.70
2017-07-03T11:03:38.258Z,3.00
2017-07-03T11:06:05.702Z,3.03
2017-07-03T11:08:33.146Z,2.63
2017-07-03T11:11:00.602Z,2.90
2017-07-03T11:13:28.053Z,2.80
2017-07-03T11:15:55.498Z,2.60
2017-07-03T11:18:22.943Z,2.93
2017-07-03T11:20:51.146Z,2.90
2017-07-03T11:23:18.588Z,2.43
2017-07-03T11:25:46.032Z,2.77
2017-07-03T11:28:13.474Z,2.80
2017-07-03T11:30:41.708Z,2.40
2017-07-03T11:33:09.163Z,2.23
2017-07-03T11:35:36.604Z,2.63
2017-07-03T11:38:04.059Z,2.80
2017-07-03T11:40:31.499Z,2.27
2017-07-03T11:42:58.943Z,2.90
2017-07-03T11:45:26.383Z,2.80
2017-07-03T11:47:54.595Z,2.50
2017-07-03T11:50:22.036Z,2.67
2017-07-03T11:52:49.484Z,1.93
2017-07-03T11:55:16.915Z,2.40
2017-07-03T11:57:45.139Z,2.47
2017-07-03T12:00:12.582Z,2.30
2017-07-03T12:02:40.057Z,2.40
2017-07-03T12:05:07.494Z,2.30
2017-07-03T12:07:34.940Z,2.17
2017-07-03T12:10:02.379Z,2.80
2017-07-03T12:12:29.827Z,2.53
2017-07-03T12:14:57.267Z,2.33
2017-07-03T12:17:24.703Z,3.00
2017-07-03T12:19:52.155Z,2.37
2017-07-03T12:22:19.599Z,2.03
2017-07-03T12:24:47.056Z,1.83
2017-07-03T12:27:14.498Z,2.20
2017-07-03T12:29:41.968Z,2.00
2017-07-03T12:32:09.402Z,1.80
2017-07-03T12:34:36.860Z,1.63
2017-07-03T12:37:04.304Z,1.57
2017-07-03T12:39:32.516Z,1.50
2017-07-03T12:41:59.971Z,1.57
2017-07-03T12:44:27.416Z,1.97
2017-07-03T12:46:54.854Z,2.00
2017-07-03T12:49:22.299Z,1.73
2017-07-03T12:51:50.523Z,12.90
2017-07-03T12:54:17.963Z,4.00
2017-07-03T12:56:45.420Z,1.90
2017-07-03T12:59:12.864Z,1.93
2017-07-03T13:01:40.318Z,2.03
2017-07-03T13:04:07.754Z,2.00
2017-07-03T13:06:35.965Z,1.90
2017-07-03T13:09:03.418Z,1.83
2017-07-03T13:11:30.886Z,2.17
2017-07-03T13:13:58.331Z,1.97
2017-07-03T13:16:25.781Z,1.80
2017-07-03T13:18:53.222Z,2.10
2017-07-03T13:21:20.667Z,1.97
2017-07-03T13:23:48.121Z,1.90
2017-07-03T13:26:16.328Z,1.60
2017-07-03T13:28:43.788Z,2.00
2017-07-03T13:31:11.222Z,1.70
2017-07-03T13:33:38.678Z,1.67
2017-07-03T13:36:06.114Z,1.90
2017-07-03T13:38:34.328Z,1.73
2017-07-03T13:41:01.784Z,1.77
2017-07-03T13:43:29.227Z,1.60
2017-07-03T13:45:56.674Z,1.80
2017-07-03T13:48:24.115Z,1.80
2017-07-03T13:50:52.328Z,1.70
2017-07-03T13:53:19.767Z,1.90
2017-07-03T13:55:47.218Z,1.70
2017-07-03T13:58:14.650Z,1.63
2017-07-03T14:00:42.099Z,1.47
2017-07-03T14:03:09.530Z,1.60
2017-07-03T14:05:36.994Z,1.60
2017-07-03T14:08:04.440Z,1.63
2017-07-03T14:10:31.881Z,1.53
2017-07-03T14:12:59.329Z,1.50
2017-07-03T14:15:26.809Z,1.37
2017-07-03T14:17:54.224Z,1.50
2017-07-03T14:20:22.434Z,1.43
2017-07-03T14:22:49.888Z,1.70
2017-07-03T14:25:17.333Z,1.60
2017-07-03T14:27:44.775Z,1.70
2017-07-03T14:30:12.230Z,1.77
2017-07-03T14:32:39.679Z,1.87
2017-07-03T14:35:07.123Z,1.77
2017-07-03T14:37:35.370Z,1.53
2017-07-03T14:40:02.815Z,1.47
2017-07-03T14:42:30.259Z,1.47
2017-07-03T14:44:57.715Z,1.50
2017-07-03T14:47:25.155Z,1.90
2017-07-03T14:49:52.605Z,2.03
2017-07-03T14:52:20.043Z,2.03
2017-07-03T14:54:48.255Z,1.30
2017-07-03T14:57:15.695Z,1.60
2017-07-03T14:59:43.148Z,1.77
2017-07-03T15:02:10.598Z,1.40
2017-07-03T15:04:38.046Z,1.60
2017-07-03T15:07:05.495Z,1.60
2017-07-03T15:09:32.943Z,1.50
2017-07-03T15:12:00.396Z,1.70
2017-07-03T15:14:27.854Z,1.50
2017-07-03T15:16:55.296Z,1.93
2017-07-03T15:19:22.745Z,1.80
2017-07-03T15:21:50.199Z,1.97
2017-07-03T15:24:17.639Z,2.00
2017-07-03T15:26:45.087Z,1.70
2017-07-03T15:29:12.527Z,1.57
2017-07-03T15:31:39.995Z,1.50
2017-07-03T15:34:07.439Z,1.70
2017-07-03T15:36:34.883Z,1.63
2017-07-03T15:39:02.326Z,1.70
2017-07-03T15:41:30.539Z,2.07
2017-07-03T15:43:57.996Z,1.70
2017-07-03T15:46:25.451Z,1.67
2017-07-03T15:48:52.905Z,1.53
2017-07-03T15:51:20.364Z,1.63
2017-07-03T15:53:47.824Z,2.10
2017-07-03T15:56:15.277Z,1.73
2017-07-03T15:58:42.731Z,1.80
2017-07-03T16:01:10.187Z,1.90
2017-07-03T16:03:37.642Z,1.93
2017-07-03T16:06:05.100Z,2.00
2017-07-03T16:08:32.557Z,1.80
2017-07-03T16:10:59.991Z,1.80
2017-07-03T16:13:27.440Z,1.83
2017-07-03T16:15:54.883Z,1.60
2017-07-03T16:18:22.345Z,1.60
2017-07-03T16:20:49.787Z,1.73
2017-07-03T16:23:17.232Z,1.87
2017-07-03T16:25:44.683Z,1.70
2017-07-03T16:28:12.138Z,1.70
2017-07-03T16:30:39.595Z,2.00
2017-07-03T16:33:07.048Z,1.60
2017-07-03T16:35:34.489Z,2.00
2017-07-03T16:38:01.931Z,1.80
2017-07-03T16:40:29.384Z,1.80
2017-07-03T16:42:56.828Z,1.90
2017-07-03T16:45:24.276Z,1.53
2017-07-03T16:47:51.720Z,1.83
2017-07-03T16:50:19.951Z,2.03
2017-07-03T16:52:47.396Z,1.67
2017-07-03T16:55:14.845Z,1.90
2017-07-03T16:57:42.294Z,2.50
2017-07-03T17:00:09.739Z,1.80
2017-07-03T17:02:37.209Z,1.77
2017-07-03T17:05:04.639Z,1.80
2017-07-03T17:07:32.082Z,2.10
2017-07-03T17:10:00.294Z,1.90
2017-07-03T17:12:27.756Z,1.77
2017-07-03T17:14:55.200Z,2.13
2017-07-03T17:17:22.657Z,2.00
2017-07-03T17:19:50.105Z,2.00
2017-07-03T17:22:17.580Z,1.77
2017-07-03T17:24:45.022Z,2.00
2017-07-03T17:27:12.466Z,1.57
2017-07-03T17:29:39.915Z,1.77
2017-07-03T17:32:07.360Z,2.10
2017-07-03T17:34:34.806Z,1.90
2017-07-03T17:37:03.043Z,2.30
2017-07-03T17:39:30.492Z,2.37
2017-07-03T17:41:57.939Z,2.20
2017-07-03T17:44:25.399Z,2.20
2017-07-03T17:46:52.855Z,2.20
2017-07-03T17:49:20.312Z,2.57
2017-07-03T17:51:47.765Z,2.20
2017-07-03T17:54:15.205Z,2.80
2017-07-03T17:56:42.655Z,2.03
2017-07-03T17:59:10.091Z,1.93
2017-07-03T18:01:38.307Z,2.07
2017-07-03T18:04:05.767Z,2.13
2017-07-03T18:06:33.351Z,2.40
2017-07-03T18:09:00.800Z,2.07
2017-07-03T18:11:28.259Z,2.20
2017-07-03T18:13:55.719Z,2.00
2017-07-03T18:16:23.183Z,2.30
2017-07-03T18:18:50.627Z,2.23
2017-07-03T18:21:18.072Z,2.30
2017-07-03T18:23:45.519Z,2.10
2017-07-03T18:26:12.975Z,2.10
2017-07-03T18:28:40.431Z,2.30
2017-07-03T18:31:07.875Z,2.07
2017-07-03T18:33:35.328Z,2.20
2017-07-03T18:36:02.769Z,2.50
2017-07-03T18:38:30.982Z,2.40
2017-07-03T18:40:58.431Z,1.93
2017-07-03T18:43:25.898Z,2.17
2017-07-03T18:45:53.343Z,2.30
2017-07-03T18:48:20.815Z,2.47
2017-07-03T18:50:48.267Z,2.43
2017-07-03T18:53:15.716Z,2.63
2017-07-03T18:55:43.170Z,2.57
2017-07-03T18:58:10.603Z,2.20
2017-07-03T19:00:38.061Z,2.70
2017-07-03T19:03:05.499Z,2.53
2017-07-03T19:05:32.944Z,2.80
2017-07-03T19:08:01.151Z,3.00
2017-07-03T19:10:28.599Z,3.30
2017-07-03T19:12:56.040Z,3.00
2017-07-03T19:15:23.495Z,2.97
2017-07-03T19:17:50.948Z,2.70
2017-07-03T19:20:19.162Z,2.77
2017-07-03T19:22:46.618Z,3.03
2017-07-03T19:25:14.073Z,2.87
2017-07-03T19:27:41.532Z,3.50
2017-07-03T19:30:09.030Z,2.80
2017-07-03T19:32:36.483Z,2.77
2017-07-03T19:35:03.936Z,3.57
2017-07-03T19:37:31.378Z,3.60
2017-07-03T19:39:58.829Z,2.50
2017-07-03T19:42:26.288Z,2.97
2017-07-03T19:44:53.827Z,3.93
2017-07-03T19:47:21.284Z,3.23
2017-07-03T19:49:48.737Z,3.10
2017-07-03T19:52:16.190Z,3.60
2017-07-03T19:54:43.639Z,3.57
2017-07-03T19:57:11.080Z,2.97
2017-07-03T19:59:38.524Z,3.20
2017-07-03T20:02:06.739Z,3.30
2017-07-03T20:04:34.197Z,3.20
2017-07-03T20:07:01.635Z,3.60
2017-07-03T20:09:29.084Z,2.87
2017-07-03T20:11:56.522Z,3.10
2017-07-03T20:14:24.771Z,3.20
2017-07-03T20:16:52.206Z,3.67
2017-07-03T20:19:19.649Z,4.00
2017-07-03T20:21:47.104Z,4.23
2017-07-03T20:24:14.558Z,3.80
2017-07-03T20:26:42.003Z,3.17
2017-07-03T20:29:09.443Z,3.80
2017-07-03T20:31:36.887Z,3.03
2017-07-03T20:34:05.102Z,3.80
2017-07-03T20:36:32.570Z,3.30
2017-07-03T20:39:00.020Z,3.63
2017-07-03T20:41:27.472Z,3.27
2017-07-03T20:43:54.925Z,3.30
2017-07-03T20:46:22.363Z,3.90
2017-07-03T20:48:49.811Z,3.67
2017-07-03T20:51:17.264Z,3.63
2017-07-03T20:53:44.719Z,3.63
2017-07-03T20:56:12.159Z,3.93
2017-07-03T20:58:40.395Z,4.13
2017-07-03T21:01:07.840Z,3.20
2017-07-03T21:03:35.279Z,3.40
2017-07-03T21:06:02.728Z,3.33
2017-07-03T21:08:30.174Z,3.70
2017-07-03T21:10:57.622Z,3.30
2017-07-03T21:13:25.835Z,3.77
2017-07-03T21:15:53.291Z,3.67
2017-07-03T21:18:20.734Z,3.50
2017-07-03T21:20:48.191Z,3.73
2017-07-03T21:23:15.635Z,3.50
2017-07-03T21:25:43.088Z,3.60
2017-07-03T21:28:10.531Z,4.03
2017-07-03T21:30:38.772Z,3.40
2017-07-03T21:33:06.223Z,3.70
2017-07-03T21:35:33.666Z,3.57
2017-07-03T21:38:01.116Z,3.77
2017-07-03T21:40:28.562Z,3.90
2017-07-03T21:42:56.008Z,3.53
2017-07-03T21:45:23.450Z,3.00
2017-07-03T21:47:51.670Z,3.53
2017-07-03T21:50:19.115Z,3.60
2017-07-03T21:52:46.568Z,3.50
2017-07-03T21:55:14.007Z,3.60
2017-07-03T21:57:41.447Z,3.37
2017-07-03T22:00:09.656Z,2.93
2017-07-03T22:02:37.107Z,3.37
2017-07-03T22:05:04.546Z,3.80
2017-07-03T22:07:31.991Z,3.50
2017-07-03T22:09:59.444Z,3.90
2017-07-03T22:12:27.657Z,3.30
2017-07-03T22:14:55.106Z,3.13
2017-07-03T22:17:22.540Z,3.40
2017-07-03T22:19:49.996Z,3.40
2017-07-03T22:22:17.434Z,3.90
2017-07-03T22:24:45.651Z,4.60
2017-07-03T22:27:13.112Z,3.60
2017-07-03T22:29:40.563Z,4.03
2017-07-03T22:32:08.023Z,3.80
2017-07-03T22:34:35.463Z,3.20
2017-07-03T22:37:02.907Z,3.67
2017-07-03T22:39:30.347Z,3.50
2017-07-03T22:41:57.845Z,3.23
2017-07-03T22:44:25.287Z,3.10
2017-07-03T22:46:52.727Z,3.43
2017-07-03T22:49:20.176Z,3.20
2017-07-03T22:51:48.415Z,3.23
2017-07-03T22:54:15.857Z,3.57
2017-07-03T22:56:43.299Z,3.53
2017-07-03T22:59:10.754Z,2.93
2017-07-03T23:01:38.198Z,3.80
2017-07-03T23:04:05.647Z,3.00
2017-07-03T23:06:33.087Z,3.03
2017-07-03T23:09:01.310Z,3.37
2017-07-03T23:11:28.754Z,2.77
2017-07-03T23:13:56.195Z,2.90
2017-07-03T23:16:23.643Z,3.00
2017-07-03T23:18:51.091Z,3.63
2017-07-03T23:21:19.303Z,3.10
2017-07-03T23:23:46.752Z,3.60
2017-07-03T23:26:14.207Z,3.10
2017-07-03T23:28:41.652Z,3.30
2017-07-03T23:31:09.094Z,3.30
2017-07-03T23:33:36.536Z,3.20
2017-07-03T23:36:04.776Z,3.27
2017-07-03T23:38:32.218Z,3.07
2017-07-03T23:40:59.663Z,2.87
2017-07-03T23:43:27.119Z,2.77
2017-07-03T23:45:54.568Z,2.90
2017-07-03T23:48:22.011Z,3.20
2017-07-03T23:50:49.445Z,3.13
2017-07-03T23:53:17.658Z,2.97
2017-07-03T23:55:45.103Z,3.10
2017-07-03T23:58:12.549Z,2.80
